Time;durP1;ratioP1;P1;durP2;ratioP2;P2;SDS_P1;SDS_P2;PMS_P1;PMS_P2;Temp;Humidity;BMP_temperature;BMP_pressure;BME280_temperature;BME280_humidity;BME280_pressure;Samples;Min_cycle;Max_cycle;Signal;HPM_P1;HPM_P2
2023/12/23 00:02:22;;;;;;;1.60;0.20;;;3.50;99.90;3.30;98473.00;;;;4896678;28;115749;-69
2023/12/23 00:04:48;;;;;;;0.77;0.40;;;4.10;99.90;3.40;98485.00;;;;4913717;28;114618;-69
2023/12/23 00:07:14;;;;;;;0.37;0.30;;;3.80;99.90;3.40;98486.00;;;;4911473;28;92199;-69
2023/12/23 00:09:41;;;;;;;0.27;0.17;;;3.60;99.90;3.40;98470.00;;;;4914088;28;87784;-69
2023/12/23 00:12:08;;;;;;;0.40;0.40;;;3.60;99.90;3.40;98473.00;;;;4914391;28;88145;-68
2023/12/23 00:14:35;;;;;;;0.20;0.20;;;3.50;99.90;3.40;98498.00;;;;4913915;28;90294;-69
2023/12/23 00:17:00;;;;;;;0.30;0.30;;;3.60;99.90;3.30;98485.00;;;;4916052;28;98935;-70
2023/12/23 00:19:26;;;;;;;0.70;0.37;;;3.60;99.90;3.30;98495.00;;;;4910008;28;88869;-69
2023/12/23 00:21:52;;;;;;;0.33;0.33;;;3.70;99.90;3.40;98492.00;;;;4912054;28;88080;-69
2023/12/23 00:24:18;;;;;;;0.73;0.40;;;3.70;99.90;3.40;98497.00;;;;4908288;28;118720;-69
2023/12/23 00:26:44;;;;;;;0.30;0.30;;;3.50;99.90;3.40;98501.00;;;;4910094;28;87566;-69
2023/12/23 00:29:09;;;;;;;0.30;0.30;;;3.20;99.90;3.50;98518.00;;;;4916201;28;109857;-70
2023/12/23 00:31:35;;;;;;;0.90;0.70;;;4.30;99.90;3.60;98510.00;;;;4912822;28;112119;-69
2023/12/23 00:34:04;;;;;;;2.17;0.40;;;4.20;99.90;3.60;98517.00;;;;4911612;28;107627;-68
2023/12/23 00:36:30;;;;;;;1.43;0.33;;;3.80;99.90;3.60;98512.00;;;;4915161;28;86939;-69
2023/12/23 00:38:55;;;;;;;0.33;0.27;;;3.70;99.90;3.70;98526.00;;;;4909067;28;95254;-70
2023/12/23 00:41:22;;;;;;;2.23;0.70;;;3.90;99.90;3.80;98547.00;;;;4908724;28;116933;-69
2023/12/23 00:43:48;;;;;;;1.23;0.37;;;4.50;99.90;3.80;98555.00;;;;4911818;28;88644;-69
2023/12/23 00:46:14;;;;;;;1.50;0.23;;;4.70;99.90;3.90;98561.00;;;;4912446;28;103240;-70
2023/12/23 00:48:40;;;;;;;0.00;0.00;;;4.10;99.90;3.90;98561.00;;;;4911798;28;92134;-69
2023/12/23 00:51:05;;;;;;;0.53;0.33;;;4.30;99.90;3.90;98583.00;;;;4908219;28;117182;-70
2023/12/23 00:53:31;;;;;;;0.37;0.20;;;4.00;99.90;3.90;98582.00;;;;4910954;28;93230;-72
2023/12/23 00:55:57;;;;;;;0.90;0.60;;;4.20;99.90;3.90;98585.00;;;;4909065;28;94765;-71
2023/12/23 00:58:22;;;;;;;2.80;0.73;;;4.10;99.90;3.90;98607.00;;;;4910245;28;87894;-71
2023/12/23 01:00:48;;;;;;;1.50;0.47;;;4.00;99.90;3.90;98597.00;;;;4897402;28;95049;-70
2023/12/23 01:03:14;;;;;;;0.30;0.30;;;4.10;99.90;3.90;98619.00;;;;4904752;28;115977;-70
2023/12/23 01:05:40;;;;;;;0.10;0.10;;;4.10;99.90;3.90;98628.00;;;;4911398;28;110459;-70
2023/12/23 01:08:05;;;;;;;0.40;0.40;;;4.10;99.90;3.90;98627.00;;;;4916716;28;88743;-73
2023/12/23 01:10:31;;;;;;;3.30;0.43;;;4.20;99.90;3.80;98631.00;;;;4908215;28;103556;-71
2023/12/23 01:12:57;;;;;;;0.87;0.30;;;2.50;99.90;3.80;98642.00;;;;4910002;28;96640;-70
2023/12/23 01:15:22;;;;;;;0.73;0.33;;;4.00;99.90;3.70;98615.00;;;;4911352;28;108700;-70
2023/12/23 01:17:48;;;;;;;2.13;0.70;;;3.80;99.90;3.60;98626.00;;;;4912597;28;108953;-72
2023/12/23 01:20:14;;;;;;;0.40;0.40;;;3.90;99.90;3.60;98655.00;;;;4911314;28;117179;-71
2023/12/23 01:22:39;;;;;;;0.80;0.43;;;3.80;99.90;3.60;98625.00;;;;4909763;28;89048;-71
2023/12/23 01:25:05;;;;;;;0.83;0.30;;;3.80;99.90;3.60;98641.00;;;;4914020;28;112349;-70
2023/12/23 01:27:31;;;;;;;0.30;0.17;;;3.80;99.90;3.60;98656.00;;;;4914049;28;87958;-70
2023/12/23 01:29:56;;;;;;;0.47;0.47;;;3.80;99.90;3.50;98656.00;;;;4909504;28;119569;-72
2023/12/23 01:32:22;;;;;;;7.83;0.50;;;3.80;99.90;3.50;98659.00;;;;4908386;28;117311;-70
2023/12/23 01:34:48;;;;;;;0.27;0.27;;;3.70;99.90;3.50;98651.00;;;;4913333;28;87744;-70
2023/12/23 01:37:14;;;;;;;0.60;0.47;;;3.70;99.90;3.40;98668.00;;;;4899922;28;87894;-69
2023/12/23 01:39:39;;;;;;;2.93;0.67;;;3.60;99.90;3.40;98686.00;;;;4909934;28;88411;-71
2023/12/23 01:42:05;;;;;;;0.77;0.60;;;3.70;99.90;3.40;98668.00;;;;4906653;28;98588;-70
2023/12/23 01:44:31;;;;;;;0.37;0.37;;;3.60;99.90;3.40;98684.00;;;;4906807;28;110267;-71
2023/12/23 01:46:59;;;;;;;0.40;0.40;;;3.60;99.90;3.40;98699.00;;;;4911001;28;107719;-70
2023/12/23 01:49:26;;;;;;;1.23;0.60;;;4.00;99.90;3.40;98717.00;;;;4909489;28;87318;-70
2023/12/23 01:51:55;;;;;;;0.30;0.30;;;3.60;99.90;3.30;98715.00;;;;4908184;28;115651;-70
2023/12/23 01:54:21;;;;;;;0.80;0.57;;;3.50;99.90;3.40;98726.00;;;;4919191;28;88417;-70
2023/12/23 01:56:49;;;;;;;2.63;0.70;;;3.50;99.90;3.40;98753.00;;;;4912770;28;88667;-70
2023/12/23 01:59:16;;;;;;;3.30;0.50;;;3.60;99.90;3.40;98753.00;;;;4930212;28;109092;-70
2023/12/23 02:01:43;;;;;;;0.67;0.30;;;3.60;99.90;3.40;98734.00;;;;4907980;28;102665;-71
2023/12/23 02:04:09;;;;;;;0.87;0.30;;;3.60;99.90;3.50;98749.00;;;;4911449;28;109630;-70
2023/12/23 02:06:35;;;;;;;7.30;0.57;;;3.70;99.90;3.50;98758.00;;;;4907760;28;88509;-71
2023/12/23 02:09:02;;;;;;;0.40;0.40;;;3.70;99.90;3.50;98744.00;;;;4902757;28;116947;-70
2023/12/23 02:11:43;;;;;;;3.17;0.70;;;3.70;99.90;3.60;98783.00;;;;4909506;28;88051;-70
2023/12/23 02:14:17;;;;;;;1.83;0.50;;;3.80;99.90;3.60;98779.00;;;;4908684;28;86981;-72
2023/12/23 02:16:44;;;;;;;0.40;0.40;;;3.80;99.90;3.60;98785.00;;;;4913805;28;87914;-71
2023/12/23 02:19:09;;;;;;;2.53;0.73;;;3.80;99.90;3.50;98778.00;;;;4906264;28;120686;-72
2023/12/23 02:21:35;;;;;;;2.93;0.80;;;3.70;99.90;3.50;98779.00;;;;4903594;28;116167;-73
2023/12/23 02:24:01;;;;;;;0.20;0.20;;;3.70;99.90;3.50;98781.00;;;;4908503;28;110022;-69
2023/12/23 02:26:31;;;;;;;1.93;0.77;;;4.00;99.90;3.60;98799.00;;;;4908789;28;87835;-70
2023/12/23 02:28:59;;;;;;;2.20;0.70;;;3.90;99.90;3.50;98799.00;;;;4906815;28;88550;-70
2023/12/23 02:31:25;;;;;;;6.37;0.60;;;3.70;99.90;3.50;98785.00;;;;4921181;28;88012;-70
2023/12/23 02:33:51;;;;;;;0.90;0.43;;;3.90;99.90;3.50;98812.00;;;;4894765;28;107965;-69
2023/12/23 02:36:23;;;;;;;1.67;0.50;;;3.70;99.90;3.50;98812.00;;;;4905210;28;87710;-70
2023/12/23 02:38:49;;;;;;;0.97;0.70;;;3.70;99.90;3.50;98823.00;;;;4905436;28;87240;-72
2023/12/23 02:41:15;;;;;;;0.80;0.50;;;3.60;99.90;3.50;98824.00;;;;4913928;28;88465;-73
2023/12/23 02:43:40;;;;;;;0.67;0.67;;;3.70;99.90;3.50;98816.00;;;;4909056;28;100854;-72
2023/12/23 02:46:06;;;;;;;0.90;0.63;;;3.90;99.90;3.50;98828.00;;;;4906892;28;101487;-72
2023/12/23 02:48:31;;;;;;;0.60;0.40;;;3.60;99.90;3.50;98848.00;;;;4906797;28;116323;-71
2023/12/23 02:50:57;;;;;;;3.73;1.07;;;3.80;99.90;3.50;98847.00;;;;4901444;28;116584;-71
2023/12/23 02:53:23;;;;;;;0.90;0.60;;;3.70;99.90;3.40;98845.00;;;;4903763;28;87796;-70
2023/12/23 02:55:48;;;;;;;1.80;0.47;;;3.60;99.90;3.40;98854.00;;;;4916907;28;87866;-72
2023/12/23 02:58:14;;;;;;;2.13;0.90;;;4.40;99.90;3.40;98864.00;;;;4913392;28;116768;-71
2023/12/23 03:00:40;;;;;;;0.60;0.60;;;3.60;99.90;3.40;98855.00;;;;4906193;28;106589;-72
2023/12/23 03:03:05;;;;;;;4.10;1.30;;;3.50;99.90;3.40;98859.00;;;;4907453;28;110134;-72
2023/12/23 03:05:31;;;;;;;0.60;0.60;;;3.60;99.90;3.30;98875.00;;;;4909365;28;106626;-73
2023/12/23 03:07:57;;;;;;;1.00;0.60;;;3.60;99.90;3.30;98870.00;;;;4919836;28;117381;-71
2023/12/23 03:10:24;;;;;;;0.77;0.63;;;3.40;99.90;3.20;98873.00;;;;4908979;28;107076;-71
2023/12/23 03:12:49;;;;;;;0.93;0.80;;;3.40;99.90;3.20;98889.00;;;;4912833;28;92735;-74
2023/12/23 03:15:15;;;;;;;1.27;0.40;;;3.40;99.90;3.20;98880.00;;;;4909615;28;107749;-72
2023/12/23 03:17:40;;;;;;;1.50;0.83;;;3.30;99.90;3.20;98885.00;;;;4908137;28;116436;-70
2023/12/23 03:20:08;;;;;;;2.97;1.30;;;3.30;99.90;3.10;98895.00;;;;4906061;28;116614;-71
2023/12/23 03:22:34;;;;;;;3.27;0.93;;;3.30;99.90;3.10;98905.00;;;;4908780;28;87993;-71
2023/12/23 03:24:59;;;;;;;1.33;0.70;;;3.30;99.90;3.10;98917.00;;;;4907897;28;87862;-71
2023/12/23 03:27:25;;;;;;;0.97;0.60;;;3.30;99.90;3.10;98918.00;;;;4908256;28;87205;-71
2023/12/23 03:29:51;;;;;;;0.50;0.50;;;3.40;99.90;3.10;98933.00;;;;4904548;28;102186;-73
2023/12/23 03:32:16;;;;;;;1.53;0.70;;;3.30;99.90;3.10;98930.00;;;;4909193;28;109902;-72
2023/12/23 03:34:43;;;;;;;0.70;0.40;;;3.30;99.90;3.00;98940.00;;;;4910830;28;108914;-72
2023/12/23 03:37:09;;;;;;;1.47;0.87;;;3.30;99.90;3.00;98955.00;;;;4904736;28;88616;-71
2023/12/23 03:39:35;;;;;;;0.97;0.77;;;3.40;99.90;3.00;98964.00;;;;4907080;28;88751;-72
2023/12/23 03:42:00;;;;;;;2.60;0.70;;;3.30;99.90;3.00;98968.00;;;;4909823;28;110883;-72
2023/12/23 03:44:26;;;;;;;1.47;0.70;;;3.10;99.90;3.00;98985.00;;;;4908476;28;88018;-73
2023/12/23 03:46:52;;;;;;;0.30;0.27;;;3.20;99.90;2.90;98998.00;;;;4904975;28;117556;-72
2023/12/23 03:49:17;;;;;;;1.67;0.60;;;3.20;99.90;2.90;98991.00;;;;4905710;28;87964;-72
2023/12/23 03:51:43;;;;;;;2.53;1.07;;;3.10;99.90;2.80;98998.00;;;;4910226;28;110376;-70
2023/12/23 03:54:09;;;;;;;2.27;0.97;;;3.10;99.90;2.80;99002.00;;;;4908005;28;107737;-71
2023/12/23 03:56:35;;;;;;;3.03;1.00;;;3.70;99.90;2.80;99011.00;;;;4890036;28;116616;-72
2023/12/23 03:59:00;;;;;;;0.90;0.87;;;3.00;99.90;2.70;99016.00;;;;4910590;28;88739;-70
2023/12/23 04:01:26;;;;;;;0.83;0.57;;;3.00;99.90;2.70;99029.00;;;;4906816;28;89090;-70
2023/12/23 04:03:52;;;;;;;5.10;0.60;;;3.70;99.90;2.70;99022.00;;;;4905144;28;109473;-71
2023/12/23 04:06:18;;;;;;;1.27;0.90;;;2.90;99.90;2.60;99026.00;;;;4907327;28;116961;-72
2023/12/23 04:08:43;;;;;;;0.33;0.33;;;2.80;99.90;2.60;99027.00;;;;4908457;28;116637;-71
2023/12/23 04:11:09;;;;;;;0.70;0.50;;;2.80;99.90;2.60;99033.00;;;;4895925;28;108504;-71
2023/12/23 04:13:38;;;;;;;1.80;0.63;;;2.80;99.90;2.50;99027.00;;;;4913494;28;108371;-70
2023/12/23 04:16:04;;;;;;;1.60;1.07;;;2.80;99.90;2.50;99032.00;;;;4926804;28;87343;-71
2023/12/23 04:18:30;;;;;;;1.87;1.30;;;2.70;99.90;2.40;99043.00;;;;4906590;28;105388;-71
2023/12/23 04:21:03;;;;;;;1.83;1.20;;;2.70;99.90;2.40;99036.00;;;;4910538;28;92590;-71
2023/12/23 04:23:28;;;;;;;1.33;0.50;;;2.70;99.90;2.40;99035.00;;;;4910251;28;90576;-71
2023/12/23 04:25:54;;;;;;;2.83;1.17;;;2.60;99.90;2.40;99052.00;;;;4906231;28;117805;-71
2023/12/23 04:28:24;;;;;;;1.17;0.50;;;3.50;99.90;2.40;99055.00;;;;4915608;28;89829;-72
2023/12/23 04:30:54;;;;;;;0.37;0.37;;;3.40;99.90;2.40;99057.00;;;;4910303;28;88218;-73
2023/12/23 04:33:21;;;;;;;3.80;0.97;;;2.70;99.90;2.40;99051.00;;;;4912667;28;88074;-71
2023/12/23 04:35:47;;;;;;;1.13;0.53;;;2.60;99.90;2.40;99060.00;;;;4917180;28;89177;-69
2023/12/23 04:38:14;;;;;;;3.23;1.03;;;2.70;99.90;2.40;99057.00;;;;4908416;28;107308;-71
2023/12/23 04:40:40;;;;;;;0.83;0.83;;;2.60;99.90;2.40;99055.00;;;;4913126;28;87127;-71
2023/12/23 04:43:06;;;;;;;0.87;0.87;;;3.30;99.90;2.40;99076.00;;;;4911952;28;87770;-72
2023/12/23 04:45:31;;;;;;;2.87;0.80;;;2.60;99.90;2.40;99070.00;;;;4910907;28;87641;-70
2023/12/23 04:47:57;;;;;;;2.43;0.97;;;2.60;99.90;2.40;99056.00;;;;4913158;28;116064;-73
2023/12/23 04:50:23;;;;;;;1.10;0.60;;;2.60;99.90;2.40;99060.00;;;;4905882;28;110002;-71
2023/12/23 04:52:48;;;;;;;2.57;1.00;;;2.70;99.90;2.40;99069.00;;;;4907681;28;102214;-73
2023/12/23 04:55:14;;;;;;;1.33;0.57;;;2.70;99.90;2.50;99074.00;;;;4908959;28;116288;-72
2023/12/23 04:57:40;;;;;;;4.33;0.77;;;2.60;99.90;2.50;99071.00;;;;4911479;28;88364;-73
2023/12/23 05:00:07;;;;;;;1.60;1.17;;;2.70;99.90;2.50;99066.00;;;;4907517;28;93558;-73
2023/12/23 05:02:38;;;;;;;1.73;0.70;;;2.80;99.90;2.50;99074.00;;;;4907024;28;87734;-72
2023/12/23 05:05:04;;;;;;;1.83;0.97;;;2.80;99.90;2.50;99065.00;;;;4910339;28;115585;-72
2023/12/23 05:07:30;;;;;;;1.97;0.80;;;2.60;99.90;2.50;99077.00;;;;4908629;28;107107;-75
2023/12/23 05:09:55;;;;;;;0.90;0.90;;;2.70;99.90;2.50;99073.00;;;;4900355;28;111436;-73
2023/12/23 05:12:22;;;;;;;3.43;1.00;;;2.70;99.90;2.50;99072.00;;;;4906972;28;99515;-74
2023/12/23 05:14:50;;;;;;;4.63;1.30;;;2.70;99.90;2.50;99058.00;;;;4911471;28;90191;-73
2023/12/23 05:17:15;;;;;;;0.60;0.60;;;2.80;99.90;2.60;99063.00;;;;4906587;28;87972;-73
2023/12/23 05:19:41;;;;;;;0.80;0.60;;;2.80;99.90;2.60;99066.00;;;;4909100;28;97457;-76
2023/12/23 05:22:07;;;;;;;1.67;0.90;;;2.80;99.90;2.60;99073.00;;;;4907614;28;108754;-73
2023/12/23 05:24:33;;;;;;;4.07;1.30;;;2.80;99.90;2.60;99067.00;;;;4894471;28;88041;-74
2023/12/23 05:26:59;;;;;;;1.50;0.90;;;2.80;99.90;2.60;99067.00;;;;4923314;28;97014;-73
2023/12/23 05:29:25;;;;;;;4.27;1.50;;;3.10;99.90;2.60;99063.00;;;;4905839;28;110599;-75
2023/12/23 05:31:50;;;;;;;1.80;1.07;;;2.80;99.90;2.60;99069.00;;;;4907078;28;87724;-74
2023/12/23 05:34:17;;;;;;;4.30;0.80;;;2.80;99.90;2.60;99058.00;;;;4907070;28;117362;-75
2023/12/23 05:36:42;;;;;;;2.07;1.07;;;3.20;99.90;2.60;99058.00;;;;4904602;28;117796;-73
2023/12/23 05:39:10;;;;;;;1.10;1.00;;;4.00;99.90;2.70;99062.00;;;;4896694;28;88228;-73
2023/12/23 05:41:36;;;;;;;2.40;1.10;;;4.00;99.90;2.70;99058.00;;;;4907673;28;97823;-75
2023/12/23 05:44:02;;;;;;;3.37;1.43;;;2.90;99.90;2.70;99064.00;;;;4907491;28;87929;-75
2023/12/23 05:46:28;;;;;;;0.97;0.83;;;2.80;99.90;2.70;99068.00;;;;4906760;28;88460;-72
2023/12/23 05:48:53;;;;;;;3.33;0.87;;;2.90;99.90;2.70;99063.00;;;;4912126;28;94325;-73
2023/12/23 05:51:19;;;;;;;0.47;0.47;;;3.00;99.90;2.70;99047.00;;;;4907515;28;108320;-73
2023/12/23 05:53:44;;;;;;;1.33;0.70;;;2.90;99.90;2.70;99042.00;;;;4913134;28;117235;-73
2023/12/23 05:56:10;;;;;;;7.90;1.57;;;2.90;99.90;2.70;99047.00;;;;4909764;28;88036;-73
2023/12/23 05:58:36;;;;;;;1.27;1.17;;;2.90;99.90;2.70;99034.00;;;;4910664;28;110313;-71
2023/12/23 06:01:02;;;;;;;1.80;1.33;;;2.90;99.90;2.70;99040.00;;;;4915052;28;108838;-72
2023/12/23 06:03:28;;;;;;;0.90;0.70;;;3.00;99.90;2.70;99041.00;;;;4910569;28;88717;-71
2023/12/23 06:05:54;;;;;;;2.53;0.70;;;2.90;99.90;2.70;99036.00;;;;4912590;28;89258;-73
2023/12/23 06:08:19;;;;;;;0.90;0.90;;;3.00;99.90;2.70;99028.00;;;;4909998;28;110378;-72
2023/12/23 06:10:45;;;;;;;0.97;0.63;;;3.00;99.90;2.80;99049.00;;;;4909787;28;108922;-74
2023/12/23 06:13:11;;;;;;;4.37;1.23;;;3.00;99.90;2.80;99033.00;;;;4910321;28;116657;-72
2023/12/23 06:15:42;;;;;;;0.70;0.70;;;3.20;99.90;2.80;99035.00;;;;4904535;28;117319;-73
2023/12/23 06:18:08;;;;;;;1.00;0.90;;;3.00;99.90;2.80;99033.00;;;;4899842;28;111034;-75
2023/12/23 06:20:33;;;;;;;2.10;0.73;;;3.00;99.90;2.80;99025.00;;;;4904566;28;108106;-72
2023/12/23 06:22:59;;;;;;;0.60;0.60;;;3.10;99.90;2.80;99023.00;;;;4902907;28;114010;-72
2023/12/23 06:25:25;;;;;;;3.60;1.03;;;3.10;99.90;2.90;99007.00;;;;4905089;28;118356;-74
2023/12/23 06:27:50;;;;;;;2.27;0.87;;;3.10;99.90;2.90;99002.00;;;;4919486;28;102194;-73
2023/12/23 06:30:16;;;;;;;0.93;0.90;;;3.20;99.90;2.90;99006.00;;;;4903304;28;99155;-73
2023/12/23 06:32:42;;;;;;;0.67;0.43;;;3.10;99.90;3.00;99008.00;;;;4905439;28;110594;-72
2023/12/23 06:35:08;;;;;;;2.93;1.57;;;4.10;99.90;3.00;99022.00;;;;4914101;28;116577;-72
2023/12/23 06:37:36;;;;;;;0.90;0.47;;;3.20;99.90;3.00;99012.00;;;;4901587;28;110333;-75
2023/12/23 06:40:02;;;;;;;1.30;0.97;;;3.20;99.90;2.90;99007.00;;;;4921258;28;87995;-73
2023/12/23 06:42:31;;;;;;;7.00;1.00;;;3.20;99.90;2.90;99002.00;;;;4916575;28;93910;-74
2023/12/23 06:44:57;;;;;;;6.93;1.53;;;3.10;99.90;2.80;99004.00;;;;4918737;28;116841;-74
2023/12/23 06:47:22;;;;;;;1.70;1.23;;;3.00;99.90;2.70;99002.00;;;;4901658;28;110098;-74
2023/12/23 06:49:48;;;;;;;5.77;1.17;;;3.40;99.90;2.70;99004.00;;;;4902469;28;107963;-75
2023/12/23 06:52:14;;;;;;;1.53;1.30;;;2.90;99.90;2.70;99012.00;;;;4904125;28;117378;-71
2023/12/23 06:54:40;;;;;;;0.77;0.60;;;2.90;99.90;2.60;99000.00;;;;4903393;28;119536;-70
2023/12/23 06:57:06;;;;;;;3.00;1.00;;;2.90;99.90;2.60;98998.00;;;;4905824;28;87655;-73
2023/12/23 06:59:31;;;;;;;1.60;1.00;;;2.80;99.90;2.60;98994.00;;;;4906135;28;109885;-73
2023/12/23 07:01:57;;;;;;;3.60;0.90;;;2.80;99.90;2.60;98982.00;;;;4890898;28;116677;-73
2023/12/23 07:04:23;;;;;;;6.90;1.23;;;3.10;99.90;2.50;99004.00;;;;4906922;28;99446;-71
2023/12/23 07:06:48;;;;;;;5.93;1.30;;;2.80;99.90;2.50;98997.00;;;;4903624;28;110926;-70
2023/12/23 07:09:14;;;;;;;1.43;0.90;;;2.80;99.90;2.50;98989.00;;;;4914796;28;108547;-72
2023/12/23 07:11:40;;;;;;;1.93;1.10;;;2.80;99.90;2.50;98993.00;;;;4899412;28;105099;-69
2023/12/23 07:14:06;;;;;;;1.70;1.07;;;2.70;99.90;2.50;98987.00;;;;4902831;28;88976;-69
2023/12/23 07:16:32;;;;;;;2.93;0.80;;;2.70;99.90;2.40;98972.00;;;;4901351;28;106729;-70
2023/12/23 07:18:57;;;;;;;3.73;0.73;;;2.70;99.90;2.40;98992.00;;;;4903571;28;109457;-70
2023/12/23 07:21:23;;;;;;;2.60;0.40;;;2.60;99.90;2.40;99004.00;;;;4907895;28;88874;-69
2023/12/23 07:23:49;;;;;;;5.10;1.40;;;2.60;99.90;2.40;98996.00;;;;4902525;28;117533;-70
2023/12/23 07:26:15;;;;;;;1.67;1.00;;;2.60;99.90;2.40;98984.00;;;;4903430;28;87861;-71
2023/12/23 07:28:40;;;;;;;6.43;1.33;;;2.90;99.90;2.40;98987.00;;;;4904550;28;89753;-70
2023/12/23 07:31:06;;;;;;;1.30;1.03;;;2.50;99.90;2.40;98995.00;;;;4906065;28;90100;-70
2023/12/23 07:33:33;;;;;;;2.00;1.17;;;2.50;99.90;2.40;98983.00;;;;4907185;28;87754;-71
2023/12/23 07:35:58;;;;;;;1.70;0.77;;;2.50;99.90;2.30;98980.00;;;;4917236;28;87560;-71
2023/12/23 07:38:24;;;;;;;1.03;0.93;;;2.60;99.90;2.30;98968.00;;;;4903508;28;88743;-70
2023/12/23 07:40:50;;;;;;;1.23;1.00;;;2.40;99.90;2.30;98968.00;;;;4907704;28;88102;-69
2023/12/23 07:43:18;;;;;;;1.17;1.07;;;2.60;99.90;2.30;98958.00;;;;4908608;28;107460;-70
2023/12/23 07:45:44;;;;;;;1.10;0.50;;;3.30;99.90;2.30;98968.00;;;;4906441;28;102191;-71
2023/12/23 07:48:12;;;;;;;0.70;0.67;;;2.60;99.90;2.30;98974.00;;;;4898174;28;105954;-71
2023/12/23 07:50:38;;;;;;;3.60;0.83;;;2.50;99.90;2.30;98965.00;;;;4907796;28;116663;-73
2023/12/23 07:53:04;;;;;;;0.63;0.63;;;2.50;99.90;2.20;98965.00;;;;4902495;28;117815;-71
2023/12/23 07:55:30;;;;;;;2.13;1.37;;;2.50;99.90;2.20;98972.00;;;;4908735;28;109345;-71
2023/12/23 07:57:55;;;;;;;0.60;0.50;;;2.60;99.90;2.20;98960.00;;;;4910057;28;87764;-69
2023/12/23 08:00:21;;;;;;;1.47;0.80;;;4.00;99.90;2.20;98971.00;;;;4905066;28;88895;-69
2023/12/23 08:02:47;;;;;;;9.67;1.20;;;2.40;99.90;2.10;98972.00;;;;4909684;28;103991;-69
2023/12/23 08:05:13;;;;;;;1.40;0.50;;;2.40;99.90;2.10;98966.00;;;;4907668;28;111018;-68
2023/12/23 08:07:41;;;;;;;0.60;0.50;;;2.40;99.90;2.10;98968.00;;;;4903600;28;87641;-68
2023/12/23 08:10:08;;;;;;;0.40;0.40;;;2.40;99.90;2.00;98968.00;;;;4907232;28;87307;-70
2023/12/23 08:12:33;;;;;;;2.53;0.67;;;2.40;99.90;2.00;98969.00;;;;4907509;28;88692;-69
2023/12/23 08:14:59;;;;;;;0.80;0.80;;;2.30;99.90;2.00;98968.00;;;;4908776;28;108515;-70
2023/12/23 08:17:25;;;;;;;0.63;0.60;;;2.20;99.90;2.00;98968.00;;;;4909759;28;108410;-70
2023/12/23 08:19:51;;;;;;;1.10;1.00;;;2.30;99.90;1.90;98967.00;;;;4909496;28;87662;-69
2023/12/23 08:22:16;;;;;;;1.03;0.70;;;3.30;99.90;1.90;98974.00;;;;4906285;28;112784;-69
2023/12/23 08:24:43;;;;;;;0.37;0.37;;;2.10;99.90;1.90;98965.00;;;;4909836;28;88110;-70
2023/12/23 08:27:09;;;;;;;1.00;0.80;;;2.10;99.90;1.80;98972.00;;;;4908899;28;90161;-68
2023/12/23 08:29:34;;;;;;;2.20;0.50;;;2.10;99.90;1.80;98963.00;;;;4909952;28;121717;-67
2023/12/23 08:32:00;;;;;;;0.63;0.63;;;2.00;99.90;1.70;98940.00;;;;4905455;28;115962;-68
2023/12/23 08:34:27;;;;;;;1.07;0.70;;;2.10;99.90;1.70;98958.00;;;;4909218;28;110246;-68
2023/12/23 08:36:54;;;;;;;1.00;0.70;;;2.00;99.90;1.70;98957.00;;;;4907847;28;88008;-68
2023/12/23 08:39:19;;;;;;;1.20;0.40;;;2.40;99.90;1.60;98954.00;;;;4907294;28;88294;-67
2023/12/23 08:41:45;;;;;;;4.37;0.90;;;1.90;99.90;1.60;98943.00;;;;4912092;28;116487;-69
2023/12/23 08:44:11;;;;;;;1.10;0.60;;;2.90;99.90;1.50;98951.00;;;;4908622;28;109547;-70
2023/12/23 08:46:37;;;;;;;2.00;0.83;;;1.80;99.90;1.50;98945.00;;;;4910422;28;87623;-68
2023/12/23 08:49:03;;;;;;;2.07;0.90;;;2.60;99.90;1.50;98949.00;;;;4911799;28;87884;-68
2023/12/23 08:51:31;;;;;;;0.57;0.53;;;1.70;99.90;1.50;98956.00;;;;4907887;28;93003;-68
2023/12/23 08:53:57;;;;;;;1.13;1.03;;;2.50;99.90;1.40;98946.00;;;;4907671;28;87910;-69
2023/12/23 08:56:23;;;;;;;1.70;0.40;;;1.80;99.90;1.40;98943.00;;;;4907286;28;88564;-67
2023/12/23 08:58:49;;;;;;;2.33;0.93;;;1.80;99.90;1.40;98942.00;;;;4907645;28;117383;-68
2023/12/23 09:01:14;;;;;;;1.33;0.73;;;2.60;99.90;1.40;98940.00;;;;4908983;28;117601;-68
2023/12/23 09:03:40;;;;;;;2.87;0.60;;;1.60;99.90;1.40;98946.00;;;;4907874;28;111018;-66
2023/12/23 09:06:06;;;;;;;0.87;0.63;;;1.60;99.90;1.30;98946.00;;;;4909602;28;107973;-68
2023/12/23 09:08:34;;;;;;;0.40;0.40;;;1.60;99.90;1.30;98948.00;;;;4910430;28;88070;-67
2023/12/23 09:11:04;;;;;;;0.87;0.80;;;1.60;99.90;1.20;98936.00;;;;4907936;28;88202;-67
2023/12/23 09:13:29;;;;;;;2.67;1.50;;;1.50;99.90;1.20;98942.00;;;;4905579;28;88336;-67
2023/12/23 09:15:55;;;;;;;2.43;1.53;;;1.50;99.90;1.20;98925.00;;;;4910399;28;100910;-67
2023/12/23 09:18:21;;;;;;;5.10;2.30;;;1.60;99.90;1.20;98936.00;;;;4905488;28;117716;-66
2023/12/23 09:20:46;;;;;;;2.40;1.67;;;1.50;99.90;1.20;98930.00;;;;4904027;28;118896;-67
2023/12/23 09:23:12;;;;;;;1.60;1.00;;;1.50;99.90;1.20;98937.00;;;;4904263;28;109350;-66
2023/12/23 09:25:38;;;;;;;1.90;0.63;;;1.50;99.90;1.20;98935.00;;;;4908816;28;109049;-68
2023/12/23 09:28:04;;;;;;;1.13;1.00;;;1.50;99.90;1.20;98932.00;;;;4889697;28;116776;-67
2023/12/23 09:30:30;;;;;;;1.87;0.80;;;1.50;99.90;1.20;98918.00;;;;4901605;28;99583;-68
2023/12/23 09:32:56;;;;;;;0.73;0.73;;;1.50;99.90;1.20;98919.00;;;;4909507;28;110801;-68
2023/12/23 09:35:22;;;;;;;3.60;1.60;;;1.40;99.90;1.10;98904.00;;;;4906454;28;87965;-69
2023/12/23 09:37:48;;;;;;;1.63;0.97;;;1.50;99.90;1.10;98911.00;;;;4904389;28;105162;-67
2023/12/23 09:40:13;;;;;;;3.43;1.20;;;0.10;99.90;1.10;98902.00;;;;4906677;28;89332;-67
2023/12/23 09:42:40;;;;;;;2.10;1.30;;;1.50;99.90;1.10;98897.00;;;;4906928;28;87556;-67
2023/12/23 09:45:06;;;;;;;1.23;0.80;;;1.40;99.90;1.10;98897.00;;;;4903177;28;107874;-68
2023/12/23 09:47:32;;;;;;;0.80;0.70;;;1.50;99.90;1.10;98902.00;;;;4908200;28;89298;-67
2023/12/23 09:49:58;;;;;;;2.93;2.20;;;1.40;99.90;1.10;98890.00;;;;4908327;28;102006;-70
2023/12/23 09:52:24;;;;;;;1.63;1.23;;;1.40;99.90;1.10;98882.00;;;;4905636;28;110290;-69
2023/12/23 09:54:53;;;;;;;0.93;0.63;;;1.40;99.90;1.10;98867.00;;;;4910146;28;87892;-68
2023/12/23 09:57:19;;;;;;;2.83;1.33;;;1.40;99.90;1.10;98881.00;;;;4907711;28;89065;-69
2023/12/23 09:59:51;;;;;;;1.60;1.00;;;1.50;99.90;1.10;98883.00;;;;4907654;28;88090;-69
2023/12/23 10:02:17;;;;;;;2.70;1.60;;;1.30;99.90;1.00;98875.00;;;;4904956;28;87694;-69
2023/12/23 10:04:43;;;;;;;2.43;1.63;;;1.40;99.90;1.00;98872.00;;;;4907432;28;88953;-67
2023/12/23 10:07:08;;;;;;;1.13;1.03;;;2.30;99.90;1.00;98855.00;;;;4906599;28;105116;-67
2023/12/23 10:09:34;;;;;;;4.60;2.77;;;1.40;99.90;1.00;98869.00;;;;4902742;28;119905;-67
2023/12/23 10:12:02;;;;;;;2.63;1.30;;;1.30;99.90;1.00;98864.00;;;;4911774;28;109657;-69
2023/12/23 10:14:28;;;;;;;3.90;1.93;;;1.60;99.90;1.10;98859.00;;;;4904408;28;88046;-68
2023/12/23 10:16:55;;;;;;;1.60;1.33;;;1.30;99.90;1.10;98856.00;;;;4907132;28;115723;-69
2023/12/23 10:19:21;;;;;;;1.27;0.70;;;1.40;99.90;1.00;98855.00;;;;4904097;28;105236;-69
2023/12/23 10:21:48;;;;;;;0.87;0.87;;;1.40;99.90;1.00;98857.00;;;;4908533;28;87018;-70
2023/12/23 10:24:14;;;;;;;0.83;0.60;;;1.40;99.90;1.00;98844.00;;;;4907613;28;92113;-72
2023/12/23 10:26:41;;;;;;;0.40;0.40;;;2.00;99.90;1.00;98849.00;;;;4912688;28;90136;-68
2023/12/23 10:29:09;;;;;;;0.87;0.67;;;1.30;99.90;1.00;98846.00;;;;4903036;28;88923;-69
2023/12/23 10:31:36;;;;;;;0.80;0.70;;;1.30;99.90;1.00;98832.00;;;;4906019;28;87501;-70
2023/12/23 10:34:11;;;;;;;0.73;0.50;;;1.30;99.90;1.00;98837.00;;;;4907535;28;87661;-70
2023/12/23 10:36:41;;;;;;;0.97;0.80;;;2.20;99.90;1.00;98835.00;;;;4901282;28;90481;-71
2023/12/23 10:39:20;;;;;;;1.30;0.87;;;1.40;99.90;1.00;98826.00;;;;4906271;28;99674;-71
2023/12/23 10:42:03;;;;;;;1.00;0.73;;;1.80;99.90;1.10;98825.00;;;;4904496;28;102233;-71
2023/12/23 10:44:31;;;;;;;2.10;0.83;;;1.30;99.90;1.10;98831.00;;;;4890183;28;87954;-73
2023/12/23 10:46:58;;;;;;;3.50;1.20;;;1.40;99.90;1.10;98825.00;;;;4906115;28;116892;-71
2023/12/23 10:49:27;;;;;;;0.97;0.93;;;1.40;99.90;1.20;98820.00;;;;4905425;28;114807;-71
2023/12/23 10:51:54;;;;;;;1.27;0.87;;;1.50;99.90;1.20;98818.00;;;;4907368;28;89308;-72
2023/12/23 10:54:21;;;;;;;0.83;0.60;;;1.50;99.90;1.20;98846.00;;;;4910543;28;88781;-71
2023/12/23 10:56:53;;;;;;;1.07;0.60;;;1.40;99.90;1.20;98833.00;;;;4903229;28;87937;-71
2023/12/23 10:59:19;;;;;;;3.27;1.10;;;1.50;99.90;1.20;98836.00;;;;4920372;28;89917;-71
2023/12/23 11:01:46;;;;;;;22.17;10.67;;;1.50;99.90;1.20;98822.00;;;;4899776;28;109072;-70